Jiaonan, China
Current Conditions -  °F | °C
As of 6:00 AM on Saturday 29 Nov 2014 (Local Time) from ZSQD Reporting Station
Haze Haze  
Wind Chill: 39°   Ceiling: Unl
Heat Index: 39°   Visibility: 2.5mi
Dew Point: 34°   Wind: 2mph
Humidity: 81%   Direction: NA
Pressure: 30.21"   Gusts: NA
Location:  35.88°N, 119.96°E
Report Text: ZSQD 282200Z VRB01MPS 4000 BR NSC 04/01 Q1023 NOSIG
Loading
Personal Weather Stations






























Interactive Weather Map New forecast layout! Learn more

10-Day Weather Forecast

Advertisements
Track Severe Weather on mobile